createdAt,value
2023-05-25T00:01:37.379Z,6.74
2023-05-25T00:04:04.650Z,6.67
2023-05-25T00:06:32.957Z,6.81
2023-05-25T00:08:59.851Z,6.57
2023-05-25T00:11:27.416Z,6.44
2023-05-25T00:13:54.343Z,6.59
2023-05-25T00:16:21.992Z,6.41
2023-05-25T00:18:49.034Z,6.30
2023-05-25T00:21:16.377Z,6.18
2023-05-25T00:23:43.522Z,6.20
2023-05-25T00:26:10.818Z,6.27
2023-05-25T00:28:37.706Z,6.12
2023-05-25T00:31:04.667Z,6.05
2023-05-25T00:33:31.765Z,6.00
2023-05-25T00:36:00.447Z,6.10
2023-05-25T00:38:27.387Z,6.00
2023-05-25T00:40:57.483Z,5.95
2023-05-25T00:43:24.414Z,5.94
2023-05-25T00:45:52.026Z,5.91
2023-05-25T00:48:19.355Z,5.84
2023-05-25T00:50:46.828Z,5.86
2023-05-25T00:53:14.351Z,5.52
2023-05-25T00:56:14.482Z,5.58
2023-05-25T00:58:43.950Z,5.38
2023-05-25T01:01:13.853Z,5.65
2023-05-25T01:03:45.956Z,5.64
2023-05-25T01:06:16.182Z,5.70
2023-05-25T01:08:50.111Z,5.68
2023-05-25T01:11:20.040Z,5.27
2023-05-25T01:13:48.863Z,5.62
2023-05-25T01:16:17.115Z,5.34
2023-05-25T01:18:44.020Z,5.49
2023-05-25T01:21:22.342Z,5.64
2023-05-25T01:24:22.765Z,5.61
2023-05-25T01:26:58.468Z,5.43
2023-05-25T01:29:28.393Z,5.51
2023-05-25T01:31:58.286Z,5.30
2023-05-25T01:34:25.409Z,5.37
2023-05-25T01:36:52.503Z,5.29
2023-05-25T01:39:22.695Z,5.55
2023-05-25T01:41:49.791Z,5.67
2023-05-25T01:44:17.365Z,5.42
2023-05-25T01:46:44.368Z,5.51
2023-05-25T01:49:14.397Z,5.50
2023-05-25T01:51:56.912Z,5.43
2023-05-25T01:54:33.266Z,5.58
2023-05-25T01:57:02.168Z,5.43
2023-05-25T01:59:31.529Z,5.33
2023-05-25T02:02:01.074Z,5.16
2023-05-25T02:04:28.923Z,4.77
2023-05-25T02:06:55.900Z,5.04
2023-05-25T02:09:22.939Z,5.10
2023-05-25T02:11:51.363Z,4.86
2023-05-25T02:14:18.399Z,5.07
2023-05-25T02:16:46.292Z,5.01
2023-05-25T02:19:15.264Z,5.05
2023-05-25T02:21:42.645Z,5.01
2023-05-25T02:24:10.505Z,5.02
2023-05-25T02:26:38.842Z,5.11
2023-05-25T02:29:06.630Z,5.04
2023-05-25T02:31:33.725Z,4.86
2023-05-25T02:34:01.532Z,4.74
2023-05-25T02:36:28.734Z,4.78
2023-05-25T02:38:55.691Z,4.87
2023-05-25T02:41:24.553Z,4.42
2023-05-25T02:43:51.622Z,4.91
2023-05-25T02:46:19.350Z,4.55
2023-05-25T02:48:47.540Z,4.59
2023-05-25T02:51:14.732Z,4.69
2023-05-25T02:53:41.991Z,4.58
2023-05-25T02:56:10.560Z,4.73
2023-05-25T02:58:38.915Z,4.84
2023-05-25T03:01:19.113Z,4.88
2023-05-25T03:03:53.102Z,5.08
2023-05-25T03:06:23.233Z,4.99
2023-05-25T03:08:54.496Z,4.61
2023-05-25T03:11:21.463Z,4.45
2023-05-25T03:13:49.336Z,4.26
2023-05-25T03:16:17.442Z,4.05
2023-05-25T03:18:44.374Z,3.87
2023-05-25T03:21:11.691Z,4.23
2023-05-25T03:23:38.559Z,4.08
2023-05-25T03:26:08.288Z,3.84
2023-05-25T03:28:35.332Z,3.96
2023-05-25T03:31:02.225Z,4.27
2023-05-25T03:33:29.139Z,4.19
2023-05-25T03:35:56.110Z,4.15
2023-05-25T03:38:23.608Z,4.08
2023-05-25T03:40:50.483Z,3.64
2023-05-25T03:43:17.774Z,3.80
2023-05-25T03:45:47.573Z,3.78
2023-05-25T03:48:14.757Z,4.10
2023-05-25T03:50:42.076Z,4.28
2023-05-25T03:53:09.000Z,4.10
2023-05-25T03:55:35.913Z,4.17
2023-05-25T03:58:02.864Z,4.45
2023-05-25T04:00:29.938Z,4.47
2023-05-25T04:02:57.291Z,4.59
2023-05-25T04:05:24.278Z,4.69
2023-05-25T04:07:52.392Z,4.84
2023-05-25T04:10:19.286Z,4.73
2023-05-25T04:12:46.211Z,4.94
2023-05-25T04:15:14.597Z,4.80
2023-05-25T04:17:56.482Z,4.67
2023-05-25T04:20:23.604Z,4.90
2023-05-25T04:22:50.715Z,4.71
2023-05-25T04:25:17.596Z,4.89
2023-05-25T04:27:46.914Z,4.68
2023-05-25T04:30:16.787Z,4.86
2023-05-25T04:32:55.106Z,5.31
2023-05-25T04:35:31.915Z,5.52
2023-05-25T04:38:03.083Z,5.51
2023-05-25T04:40:33.392Z,5.87
2023-05-25T04:43:00.615Z,5.81
2023-05-25T04:45:29.438Z,5.79
2023-05-25T04:47:58.429Z,6.12
2023-05-25T04:50:28.080Z,6.05
2023-05-25T04:52:55.218Z,6.40
2023-05-25T04:55:22.184Z,6.62
2023-05-25T04:57:49.607Z,6.76
2023-05-25T05:00:17.109Z,7.03
2023-05-25T05:02:46.199Z,7.25
2023-05-25T05:05:13.732Z,7.33
2023-05-25T05:07:41.266Z,7.74
2023-05-25T05:10:08.869Z,7.77
2023-05-25T05:12:38.134Z,7.84
2023-05-25T05:15:05.906Z,7.69
2023-05-25T05:17:33.081Z,8.09
2023-05-25T05:20:00.368Z,8.14
2023-05-25T05:22:27.459Z,8.02
2023-05-25T05:24:54.633Z,8.35
2023-05-25T05:27:26.447Z,8.52
2023-05-25T05:29:58.604Z,8.70
2023-05-25T05:32:25.849Z,8.81
2023-05-25T05:34:52.958Z,8.63
2023-05-25T05:37:33.645Z,8.73
2023-05-25T05:40:00.530Z,8.96
2023-05-25T05:42:27.660Z,8.90
2023-05-25T05:44:54.526Z,9.24
2023-05-25T05:47:21.642Z,8.99
2023-05-25T05:49:48.619Z,9.16
2023-05-25T05:52:16.857Z,9.57
2023-05-25T05:54:43.881Z,9.82
2023-05-25T05:57:13.477Z,9.87
2023-05-25T05:59:40.491Z,10.20
2023-05-25T06:02:07.944Z,10.28
2023-05-25T06:04:34.932Z,10.89
2023-05-25T06:07:02.694Z,10.94
2023-05-25T06:09:29.657Z,11.05
2023-05-25T06:11:59.578Z,11.22
2023-05-25T06:14:28.468Z,10.97
2023-05-25T06:16:58.412Z,10.80
2023-05-25T06:19:25.609Z,10.88
2023-05-25T06:21:52.746Z,10.91
2023-05-25T06:24:21.441Z,11.10
2023-05-25T06:26:48.368Z,11.34
2023-05-25T06:29:17.041Z,11.23
2023-05-25T06:31:44.598Z,11.66
2023-05-25T06:34:11.627Z,11.70
2023-05-25T06:36:38.525Z,12.01
2023-05-25T06:39:05.539Z,12.18
2023-05-25T06:41:32.643Z,11.66
2023-05-25T06:43:59.554Z,12.10
2023-05-25T06:46:40.187Z,12.29
2023-05-25T06:49:08.814Z,12.67
2023-05-25T06:51:35.738Z,12.78
2023-05-25T06:54:02.608Z,12.79
2023-05-25T06:56:29.714Z,12.50
2023-05-25T06:58:56.588Z,12.99
2023-05-25T07:01:23.560Z,13.28
2023-05-25T07:03:50.462Z,13.78
2023-05-25T07:06:17.742Z,13.81
2023-05-25T07:08:44.851Z,13.71
2023-05-25T07:11:14.343Z,13.86
2023-05-25T07:13:41.427Z,13.71
2023-05-25T07:16:08.375Z,13.71
2023-05-25T07:18:35.304Z,13.97
2023-05-25T07:21:02.206Z,14.29
2023-05-25T07:23:29.116Z,13.89
2023-05-25T07:25:56.002Z,13.73
2023-05-25T07:28:22.954Z,13.69
2023-05-25T07:30:49.805Z,13.47
2023-05-25T07:33:16.833Z,13.68
2023-05-25T07:35:44.335Z,14.06
2023-05-25T07:38:11.341Z,13.73
2023-05-25T07:40:38.275Z,14.29
2023-05-25T07:43:07.536Z,13.94
2023-05-25T07:45:35.326Z,14.43
2023-05-25T07:48:02.357Z,14.82
2023-05-25T07:50:31.547Z,14.90
2023-05-25T07:53:00.077Z,14.61
2023-05-25T07:55:27.467Z,15.21
2023-05-25T07:57:54.358Z,14.74
2023-05-25T08:00:21.818Z,14.71
2023-05-25T08:02:49.578Z,14.87
2023-05-25T08:05:17.103Z,14.73
2023-05-25T08:07:45.357Z,15.26
2023-05-25T08:10:12.481Z,14.97
2023-05-25T08:12:48.743Z,15.64
2023-05-25T08:15:17.237Z,16.24
2023-05-25T08:17:44.537Z,16.01
2023-05-25T08:20:12.294Z,15.79
2023-05-25T08:22:39.261Z,15.77
2023-05-25T08:25:07.151Z,15.12
2023-05-25T08:27:36.077Z,15.32
2023-05-25T08:30:06.091Z,15.55
2023-05-25T08:32:33.278Z,16.10
2023-05-25T08:35:03.752Z,15.73
2023-05-25T08:37:32.727Z,16.13
2023-05-25T08:40:02.500Z,16.48
2023-05-25T08:42:29.694Z,16.13
2023-05-25T08:44:57.155Z,16.93
2023-05-25T08:47:24.485Z,16.39
2023-05-25T08:49:52.958Z,16.26
2023-05-25T08:52:24.419Z,15.98
2023-05-25T08:54:54.508Z,16.21
2023-05-25T08:57:32.273Z,16.81
2023-05-25T09:00:12.017Z,17.47
2023-05-25T09:02:45.434Z,17.56
2023-05-25T09:05:13.923Z,17.32
2023-05-25T09:07:43.413Z,16.94
2023-05-25T09:10:14.792Z,16.09
2023-05-25T09:12:43.003Z,16.67
2023-05-25T09:15:11.523Z,16.92
2023-05-25T09:17:39.573Z,16.94
2023-05-25T09:20:07.913Z,17.26
2023-05-25T09:22:36.105Z,17.66
2023-05-25T09:25:08.688Z,17.50
2023-05-25T09:27:39.605Z,16.74
2023-05-25T09:30:06.955Z,16.66
2023-05-25T09:32:34.002Z,17.55
2023-05-25T09:35:14.683Z,17.90
2023-05-25T09:37:42.514Z,17.82
2023-05-25T09:40:14.775Z,17.59
2023-05-25T09:42:42.537Z,17.68
2023-05-25T09:45:09.715Z,17.97
2023-05-25T09:47:37.649Z,18.46
2023-05-25T09:50:05.988Z,18.55
2023-05-25T09:52:32.932Z,18.40
2023-05-25T09:54:59.921Z,18.19
2023-05-25T09:57:27.516Z,17.56
2023-05-25T09:59:54.374Z,17.84
2023-05-25T10:02:21.363Z,18.16
2023-05-25T10:04:48.830Z,18.47
2023-05-25T10:07:16.387Z,19.13
2023-05-25T10:09:46.657Z,18.70
2023-05-25T10:12:19.565Z,17.80
2023-05-25T10:14:46.819Z,18.25
2023-05-25T10:17:18.606Z,18.48
2023-05-25T10:19:55.330Z,18.20
2023-05-25T10:22:43.534Z,18.12
2023-05-25T10:25:17.373Z,18.16
2023-05-25T10:27:52.213Z,18.77
2023-05-25T10:30:19.934Z,19.21
2023-05-25T10:32:47.919Z,19.40
2023-05-25T10:35:15.045Z,19.75
2023-05-25T10:37:42.711Z,19.66
2023-05-25T10:40:10.451Z,19.09
2023-05-25T10:42:39.014Z,19.59
2023-05-25T10:45:08.506Z,19.88
2023-05-25T10:47:44.403Z,19.72
2023-05-25T10:50:26.449Z,19.96
2023-05-25T10:53:13.099Z,19.33
2023-05-25T10:55:44.346Z,19.81
2023-05-25T10:58:12.783Z,19.79
2023-05-25T11:00:40.735Z,19.80
2023-05-25T11:03:08.000Z,19.51
2023-05-25T11:05:39.966Z,19.93
2023-05-25T11:08:12.691Z,20.04
2023-05-25T11:10:48.866Z,19.96
2023-05-25T11:14:00.456Z,19.96
2023-05-25T11:16:27.404Z,20.40
2023-05-25T11:18:58.111Z,20.28
2023-05-25T11:21:27.925Z,20.46
2023-05-25T11:24:11.044Z,20.65
2023-05-25T11:26:37.972Z,20.65
2023-05-25T11:29:16.009Z,20.57
2023-05-25T11:31:43.854Z,21.13
2023-05-25T11:34:12.521Z,21.07
2023-05-25T11:36:39.891Z,20.15
2023-05-25T11:39:17.094Z,21.17
2023-05-25T11:41:56.284Z,21.84
2023-05-25T11:44:31.460Z,21.57
2023-05-25T11:47:02.192Z,21.77
2023-05-25T11:49:29.485Z,22.67
2023-05-25T11:51:59.952Z,22.69
2023-05-25T11:54:28.811Z,21.82
2023-05-25T11:57:00.189Z,21.87
2023-05-25T11:59:29.748Z,22.14
2023-05-25T12:02:01.292Z,22.06
2023-05-25T12:04:29.498Z,22.15
2023-05-25T12:07:07.310Z,22.74
2023-05-25T12:09:35.329Z,22.21
2023-05-25T12:12:04.574Z,22.65
2023-05-25T12:14:35.128Z,21.91
2023-05-25T12:17:04.591Z,22.05
2023-05-25T12:19:32.225Z,22.91
2023-05-25T12:21:59.230Z,22.92
2023-05-25T12:24:26.460Z,22.30
2023-05-25T12:26:57.769Z,21.99
2023-05-25T12:29:28.095Z,22.29
2023-05-25T12:32:05.790Z,21.77
2023-05-25T12:34:34.004Z,23.04
2023-05-25T12:37:01.784Z,23.45
2023-05-25T12:39:31.732Z,23.12
2023-05-25T12:42:00.702Z,22.08
2023-05-25T12:44:32.705Z,22.38
2023-05-25T12:47:20.416Z,22.17
2023-05-25T12:49:51.571Z,22.87
2023-05-25T12:52:44.505Z,22.34
2023-05-25T12:55:27.750Z,22.71
2023-05-25T12:58:02.920Z,23.05
2023-05-25T13:00:36.552Z,22.55
2023-05-25T13:03:04.569Z,22.57
2023-05-25T13:05:34.044Z,22.49
2023-05-25T13:08:02.296Z,22.25
2023-05-25T13:10:30.989Z,23.16
2023-05-25T13:12:58.735Z,24.26
2023-05-25T13:15:27.043Z,23.64
2023-05-25T13:17:56.602Z,23.15
2023-05-25T13:20:25.262Z,23.35
2023-05-25T13:22:53.489Z,23.15
2023-05-25T13:25:22.641Z,23.33
2023-05-25T13:27:51.286Z,22.95
2023-05-25T13:30:20.943Z,23.41
2023-05-25T13:32:50.412Z,23.46
2023-05-25T13:35:23.001Z,23.52
2023-05-25T13:37:51.493Z,22.83
2023-05-25T13:40:19.277Z,23.17
2023-05-25T13:42:46.179Z,23.11
2023-05-25T13:45:13.933Z,23.12
2023-05-25T13:47:43.799Z,23.51
2023-05-25T13:50:11.541Z,23.91
2023-05-25T13:52:38.480Z,23.14
2023-05-25T13:55:05.779Z,24.12
2023-05-25T13:57:32.658Z,23.89
2023-05-25T13:59:59.582Z,24.59
2023-05-25T14:02:26.760Z,24.94
2023-05-25T14:04:53.780Z,25.37
2023-05-25T14:07:20.663Z,24.91
2023-05-25T14:09:47.556Z,24.58
2023-05-25T14:12:14.587Z,25.28
2023-05-25T14:14:41.477Z,25.20
2023-05-25T14:17:08.343Z,25.05
2023-05-25T14:19:35.549Z,24.61
2023-05-25T14:24:32.467Z,24.27
2023-05-25T14:26:59.389Z,23.32
2023-05-25T14:29:26.326Z,23.41
2023-05-25T14:31:53.495Z,23.61
2023-05-25T14:34:20.504Z,23.77
2023-05-25T14:36:47.389Z,24.23
2023-05-25T14:39:17.165Z,24.38
2023-05-25T14:41:44.551Z,24.18
2023-05-25T14:44:11.558Z,23.82
2023-05-25T14:46:38.572Z,23.88
2023-05-25T14:49:05.506Z,24.48
2023-05-25T14:51:32.551Z,23.56
2023-05-25T14:54:01.520Z,24.12
2023-05-25T14:56:28.611Z,23.46
2023-05-25T14:58:55.524Z,24.02
2023-05-25T15:01:25.096Z,24.07
2023-05-25T15:03:52.695Z,23.69
2023-05-25T15:06:19.879Z,23.98
2023-05-25T15:08:47.055Z,25.07
2023-05-25T15:11:13.983Z,24.26
2023-05-25T15:13:41.168Z,23.84
2023-05-25T15:16:12.007Z,23.09
2023-05-25T15:18:38.968Z,22.93
2023-05-25T15:21:06.504Z,23.25
2023-05-25T15:23:33.476Z,23.23
2023-05-25T15:26:04.783Z,23.28
2023-05-25T15:28:31.921Z,22.94
2023-05-25T15:31:01.596Z,22.87
2023-05-25T15:33:43.641Z,22.29
2023-05-25T15:36:16.794Z,21.94
2023-05-25T15:38:44.692Z,21.81
2023-05-25T15:41:15.192Z,21.97
2023-05-25T15:43:42.463Z,21.88
2023-05-25T15:46:09.355Z,22.35
2023-05-25T15:48:36.275Z,22.15
2023-05-25T15:51:03.255Z,22.40
2023-05-25T15:53:30.624Z,22.02
2023-05-25T15:55:57.590Z,21.20
2023-05-25T15:58:24.506Z,21.99
2023-05-25T16:00:51.369Z,22.21
2023-05-25T16:03:18.409Z,21.86
2023-05-25T16:05:46.067Z,21.67
2023-05-25T16:08:14.261Z,21.41
2023-05-25T16:10:41.181Z,21.29
2023-05-25T16:13:08.138Z,20.91
2023-05-25T16:15:35.094Z,20.81
2023-05-25T16:18:02.081Z,20.67
2023-05-25T16:20:29.169Z,20.61
2023-05-25T16:22:56.136Z,20.57
2023-05-25T16:25:23.101Z,19.98
2023-05-25T16:27:49.984Z,20.42
2023-05-25T16:30:16.936Z,20.31
2023-05-25T16:32:43.915Z,20.05
2023-05-25T16:35:10.886Z,19.96
2023-05-25T16:37:37.793Z,20.04
2023-05-25T16:40:04.987Z,20.14
2023-05-25T16:42:31.950Z,19.97
2023-05-25T16:44:58.855Z,19.70
2023-05-25T16:47:25.767Z,19.71
2023-05-25T16:49:52.641Z,19.86
2023-05-25T16:52:19.545Z,20.12
2023-05-25T16:54:46.485Z,19.69
2023-05-25T16:57:13.358Z,19.76
2023-05-25T16:59:40.255Z,19.97
2023-05-25T17:02:07.187Z,19.83
2023-05-25T17:04:34.091Z,19.85
2023-05-25T17:07:00.976Z,19.81
2023-05-25T17:09:27.897Z,19.47
2023-05-25T17:11:59.544Z,19.34
2023-05-25T17:14:26.524Z,19.65
2023-05-25T17:16:53.699Z,19.59
2023-05-25T17:19:20.721Z,19.76
2023-05-25T17:21:48.374Z,19.69
2023-05-25T17:24:15.350Z,19.59
2023-05-25T17:26:42.241Z,19.72
2023-05-25T17:29:09.146Z,19.91
2023-05-25T17:31:36.077Z,19.37
2023-05-25T17:34:03.416Z,19.00
2023-05-25T17:36:30.309Z,19.11
2023-05-25T17:38:57.235Z,19.13
2023-05-25T17:41:24.198Z,19.05
2023-05-25T17:43:51.150Z,19.02
2023-05-25T17:46:18.223Z,18.63
2023-05-25T17:48:45.901Z,18.55
2023-05-25T17:51:12.839Z,18.72
2023-05-25T17:53:39.874Z,18.72
2023-05-25T17:56:06.995Z,18.38
2023-05-25T17:58:33.915Z,18.65
2023-05-25T18:01:01.000Z,18.14
2023-05-25T18:03:28.078Z,18.20
2023-05-25T18:05:55.130Z,18.21
2023-05-25T18:08:22.156Z,18.12
2023-05-25T18:10:50.775Z,17.86
2023-05-25T18:13:17.697Z,17.75
2023-05-25T18:15:44.890Z,17.75
2023-05-25T18:18:17.566Z,17.30
2023-05-25T18:20:44.593Z,17.39
2023-05-25T18:23:13.472Z,17.51
2023-05-25T18:25:40.481Z,17.44
2023-05-25T18:28:07.405Z,17.48
2023-05-25T18:30:34.855Z,17.13
2023-05-25T18:33:01.854Z,17.00
2023-05-25T18:35:28.814Z,17.13
2023-05-25T18:37:55.806Z,16.91
2023-05-25T18:40:23.502Z,16.80
2023-05-25T18:42:51.147Z,16.79
2023-05-25T18:45:18.052Z,16.62
2023-05-25T18:47:45.001Z,16.54
2023-05-25T18:50:12.602Z,16.76
2023-05-25T18:52:39.751Z,16.58
2023-05-25T18:55:07.248Z,16.31
2023-05-25T18:57:34.635Z,16.10
2023-05-25T19:00:01.548Z,16.09
2023-05-25T19:02:29.331Z,16.03
2023-05-25T19:04:56.306Z,16.24
2023-05-25T19:07:23.214Z,16.06
2023-05-25T19:09:50.104Z,15.83
2023-05-25T19:12:17.152Z,15.85
2023-05-25T19:14:44.092Z,15.78
2023-05-25T19:17:10.986Z,15.69
2023-05-25T19:19:37.906Z,15.49
2023-05-25T19:22:05.029Z,15.70
2023-05-25T19:24:31.975Z,15.27
2023-05-25T19:26:58.874Z,15.41
2023-05-25T19:29:25.827Z,15.29
2023-05-25T19:31:52.964Z,14.96
2023-05-25T19:34:20.043Z,15.05
2023-05-25T19:36:48.256Z,14.88
2023-05-25T19:39:20.608Z,14.82
2023-05-25T19:41:48.159Z,14.87
2023-05-25T19:44:15.193Z,14.58
2023-05-25T19:46:42.559Z,14.52
2023-05-25T19:49:09.540Z,14.63
2023-05-25T19:51:37.631Z,14.45
2023-05-25T19:54:04.587Z,14.68
2023-05-25T19:56:31.589Z,14.53
2023-05-25T19:58:58.503Z,14.72
2023-05-25T20:01:25.511Z,14.41
2023-05-25T20:03:52.631Z,14.30
2023-05-25T20:06:19.610Z,14.51
2023-05-25T20:08:46.674Z,14.29
2023-05-25T20:11:13.608Z,14.33
2023-05-25T20:13:41.586Z,14.42
2023-05-25T20:16:11.498Z,13.92
2023-05-25T20:18:38.548Z,14.21
2023-05-25T20:21:05.824Z,14.06
2023-05-25T20:23:32.710Z,14.27
2023-05-25T20:25:59.736Z,14.23
2023-05-25T20:28:26.653Z,14.18
2023-05-25T20:30:53.584Z,14.12
2023-05-25T20:33:21.231Z,13.95
2023-05-25T20:35:48.535Z,13.69
2023-05-25T20:38:15.517Z,13.98
2023-05-25T20:40:42.423Z,13.81
2023-05-25T20:43:09.362Z,13.70
2023-05-25T20:45:36.362Z,13.65
2023-05-25T20:48:06.826Z,13.59
2023-05-25T20:50:33.801Z,13.43
2023-05-25T20:53:00.733Z,13.79
2023-05-25T20:55:27.768Z,13.80
2023-05-25T20:57:54.879Z,13.38
2023-05-25T21:00:23.807Z,13.67
2023-05-25T21:02:50.760Z,13.53
2023-05-25T21:05:17.875Z,13.47
2023-05-25T21:07:44.825Z,13.20
2023-05-25T21:10:11.752Z,13.59
2023-05-25T21:12:38.737Z,13.30
2023-05-25T21:15:06.637Z,13.25
2023-05-25T21:17:33.622Z,13.54
2023-05-25T21:20:00.840Z,13.41
2023-05-25T21:22:27.716Z,13.40
2023-05-25T21:24:54.707Z,13.67
2023-05-25T21:27:21.706Z,13.60
2023-05-25T21:29:48.657Z,13.47
2023-05-25T21:32:15.624Z,13.53
2023-05-25T21:34:42.538Z,13.17
2023-05-25T21:37:09.415Z,13.15
2023-05-25T21:39:36.399Z,12.71
2023-05-25T21:42:23.695Z,13.07
2023-05-25T21:44:50.646Z,12.99
2023-05-25T21:47:17.574Z,13.01
2023-05-25T21:49:44.529Z,13.04
2023-05-25T21:52:19.120Z,13.02
2023-05-25T21:54:46.095Z,12.81
2023-05-25T21:57:13.101Z,13.02
2023-05-25T21:59:40.047Z,13.13
2023-05-25T22:02:07.092Z,13.13
2023-05-25T22:04:34.001Z,12.92
2023-05-25T22:07:00.885Z,12.77
2023-05-25T22:09:29.980Z,12.68
2023-05-25T22:11:56.884Z,12.48
2023-05-25T22:14:23.854Z,12.72
2023-05-25T22:16:50.928Z,12.61
2023-05-25T22:19:18.011Z,12.71
2023-05-25T22:21:44.974Z,12.59
2023-05-25T22:24:12.091Z,12.67
2023-05-25T22:26:39.082Z,12.50
2023-05-25T22:29:06.008Z,12.57
2023-05-25T22:31:33.033Z,12.58
2023-05-25T22:34:00.111Z,12.22
2023-05-25T22:36:27.047Z,12.22
2023-05-25T22:38:53.944Z,12.13
2023-05-25T22:41:21.634Z,11.94
2023-05-25T22:43:48.692Z,11.81
2023-05-25T22:46:15.773Z,11.77
2023-05-25T22:48:43.770Z,11.83
2023-05-25T22:51:10.704Z,11.55
2023-05-25T22:53:37.709Z,11.52
2023-05-25T22:56:04.641Z,11.56
2023-05-25T22:58:31.535Z,11.60
2023-05-25T23:00:58.475Z,11.34
2023-05-25T23:03:25.503Z,11.52
2023-05-25T23:05:52.538Z,11.49
2023-05-25T23:08:19.457Z,11.64
2023-05-25T23:10:46.393Z,11.50
2023-05-25T23:13:15.123Z,11.64
2023-05-25T23:15:45.207Z,11.31
2023-05-25T23:18:12.292Z,11.43
2023-05-25T23:20:40.803Z,11.41
2023-05-25T23:23:08.068Z,11.43
2023-05-25T23:25:35.005Z,11.50
2023-05-25T23:28:01.959Z,11.15
2023-05-25T23:30:28.997Z,11.01
2023-05-25T23:32:55.899Z,10.90
2023-05-25T23:35:23.573Z,10.50
2023-05-25T23:37:52.252Z,10.80
2023-05-25T23:40:19.232Z,10.66
2023-05-25T23:42:46.183Z,10.74
2023-05-25T23:45:13.925Z,11.04
2023-05-25T23:47:40.984Z,10.74
2023-05-25T23:50:08.220Z,10.58
2023-05-25T23:52:35.234Z,10.59
2023-05-25T23:55:02.435Z,10.90
2023-05-25T23:57:29.408Z,10.74
2023-05-25T23:59:56.428Z,10.48
